createdAt,value
2023-05-22T00:01:21.384Z,14.82
2023-05-22T00:03:50.673Z,14.75
2023-05-22T00:06:18.404Z,13.18
2023-05-22T00:08:45.136Z,14.57
2023-05-22T00:11:11.961Z,17.92
2023-05-22T00:13:38.706Z,12.85
2023-05-22T00:16:06.174Z,11.60
2023-05-22T00:18:32.902Z,13.25
2023-05-22T00:21:02.281Z,14.15
2023-05-22T00:23:29.884Z,21.83
2023-05-22T00:25:57.043Z,27.48
2023-05-22T00:28:23.834Z,20.75
2023-05-22T00:30:50.676Z,18.70
2023-05-22T00:33:17.569Z,14.93
2023-05-22T00:35:44.350Z,18.05
2023-05-22T00:38:32.777Z,20.98
2023-05-22T00:41:01.605Z,18.17
2023-05-22T00:43:30.269Z,16.13
2023-05-22T00:45:57.368Z,15.45
2023-05-22T00:48:24.961Z,19.10
2023-05-22T00:50:54.658Z,16.58
2023-05-22T00:53:24.686Z,14.43
2023-05-22T00:55:53.691Z,17.55
2023-05-22T00:58:21.858Z,18.83
2023-05-22T01:00:48.936Z,16.17
2023-05-22T01:03:17.774Z,16.23
2023-05-22T01:05:45.293Z,15.30
2023-05-22T01:08:12.432Z,16.40
2023-05-22T01:10:40.927Z,17.15
2023-05-22T01:13:24.648Z,19.88
2023-05-22T01:16:29.953Z,18.33
2023-05-22T01:19:54.089Z,16.40
2023-05-22T01:23:05.886Z,13.65
2023-05-22T01:25:35.691Z,15.10
2023-05-22T01:28:33.358Z,15.82
2023-05-22T01:31:06.516Z,17.63
2023-05-22T01:33:45.479Z,14.45
2023-05-22T01:36:19.409Z,12.43
2023-05-22T01:38:47.594Z,14.80
2023-05-22T01:41:16.175Z,15.98
2023-05-22T01:43:43.948Z,15.50
2023-05-22T01:46:10.947Z,16.50
2023-05-22T01:48:37.818Z,16.40
2023-05-22T01:51:46.493Z,18.00
2023-05-22T01:54:24.972Z,13.52
2023-05-22T01:57:22.332Z,16.20
2023-05-22T01:59:56.246Z,16.15
2023-05-22T02:02:28.006Z,17.52
2023-05-22T02:05:00.518Z,16.05
2023-05-22T02:07:29.187Z,15.63
2023-05-22T02:09:57.662Z,19.35
2023-05-22T02:12:25.915Z,15.10
2023-05-22T02:14:52.815Z,20.02
2023-05-22T02:17:20.259Z,15.60
2023-05-22T02:19:47.037Z,15.50
2023-05-22T02:22:14.039Z,16.60
2023-05-22T02:24:44.334Z,17.75
2023-05-22T02:27:11.823Z,16.75
2023-05-22T02:29:40.432Z,18.85
2023-05-22T02:32:09.768Z,17.02
2023-05-22T02:34:37.989Z,16.77
2023-05-22T02:37:05.333Z,20.27
2023-05-22T02:39:32.122Z,19.58
2023-05-22T02:41:58.961Z,18.88
2023-05-22T02:44:26.855Z,23.27
2023-05-22T02:46:53.751Z,17.92
2023-05-22T02:49:20.610Z,16.27
2023-05-22T02:51:47.588Z,15.55
2023-05-22T02:54:16.124Z,16.65
2023-05-22T02:56:43.897Z,19.40
2023-05-22T02:59:11.238Z,20.23
2023-05-22T03:01:38.797Z,17.85
2023-05-22T03:04:06.606Z,15.82
2023-05-22T03:06:35.088Z,17.58
2023-05-22T03:09:04.029Z,20.85
2023-05-22T03:11:32.819Z,18.25
2023-05-22T03:13:59.630Z,15.80
2023-05-22T03:16:26.784Z,14.63
2023-05-22T03:19:15.168Z,18.05
2023-05-22T03:21:46.173Z,14.30
2023-05-22T03:24:13.123Z,16.83
2023-05-22T03:26:39.973Z,18.70
2023-05-22T03:29:06.749Z,14.63
2023-05-22T03:31:34.601Z,17.63
2023-05-22T03:34:01.593Z,16.65
2023-05-22T03:36:29.918Z,15.80
2023-05-22T03:39:00.380Z,15.82
2023-05-22T03:41:27.407Z,14.50
2023-05-22T03:43:54.269Z,16.85
2023-05-22T03:46:21.398Z,15.27
2023-05-22T03:48:48.407Z,13.85
2023-05-22T03:51:17.580Z,18.63
2023-05-22T03:53:46.198Z,17.98
2023-05-22T03:56:13.053Z,15.07
2023-05-22T03:58:39.877Z,18.60
2023-05-22T04:01:10.241Z,15.98
2023-05-22T04:03:40.222Z,17.42
2023-05-22T04:06:07.581Z,18.88
2023-05-22T04:08:34.868Z,20.05
2023-05-22T04:11:03.052Z,15.05
2023-05-22T04:13:31.376Z,15.77
2023-05-22T04:15:58.457Z,15.50
2023-05-22T04:18:27.333Z,18.52
2023-05-22T04:20:54.137Z,15.88
2023-05-22T04:23:21.424Z,18.25
2023-05-22T04:25:48.384Z,18.15
2023-05-22T04:28:17.519Z,16.02
2023-05-22T04:30:44.817Z,17.20
2023-05-22T04:33:12.705Z,16.67
2023-05-22T04:35:44.283Z,17.23
2023-05-22T04:38:12.312Z,18.77
2023-05-22T04:40:40.023Z,15.65
2023-05-22T04:43:07.995Z,18.55
2023-05-22T04:45:38.550Z,19.42
2023-05-22T04:48:08.014Z,19.85
2023-05-22T04:50:36.037Z,16.15
2023-05-22T04:53:04.677Z,22.73
2023-05-22T04:55:35.082Z,19.33
2023-05-22T04:58:02.988Z,17.58
2023-05-22T05:00:30.050Z,16.75
2023-05-22T05:03:02.137Z,23.08
2023-05-22T05:05:29.084Z,20.52
2023-05-22T05:07:56.505Z,16.80
2023-05-22T05:10:23.462Z,22.10
2023-05-22T05:12:50.291Z,19.05
2023-05-22T05:15:23.921Z,21.08
2023-05-22T05:17:51.040Z,22.15
2023-05-22T05:20:17.934Z,18.15
2023-05-22T05:22:46.107Z,21.60
2023-05-22T05:25:14.965Z,17.77
2023-05-22T05:27:41.872Z,20.83
2023-05-22T05:30:09.409Z,21.30
2023-05-22T05:32:36.558Z,19.20
2023-05-22T05:35:03.616Z,20.80
2023-05-22T05:37:30.503Z,17.73
2023-05-22T05:39:57.331Z,21.75
2023-05-22T05:42:24.090Z,21.60
2023-05-22T05:44:53.746Z,24.35
2023-05-22T05:47:24.058Z,18.23
2023-05-22T05:49:51.033Z,17.67
2023-05-22T05:52:17.929Z,21.83
2023-05-22T05:54:47.465Z,19.65
2023-05-22T05:57:17.533Z,17.15
2023-05-22T05:59:44.310Z,23.42
2023-05-22T06:02:12.497Z,24.17
2023-05-22T06:04:39.272Z,19.17
2023-05-22T06:07:06.421Z,19.10
2023-05-22T06:09:34.533Z,22.00
2023-05-22T06:12:01.453Z,18.13
2023-05-22T06:14:29.636Z,18.48
2023-05-22T06:16:56.669Z,22.30
2023-05-22T06:19:23.663Z,23.52
2023-05-22T06:21:52.035Z,19.52
2023-05-22T06:24:19.305Z,21.48
2023-05-22T06:26:47.568Z,17.65
2023-05-22T06:29:14.310Z,20.63
2023-05-22T06:31:41.163Z,17.95
2023-05-22T06:34:08.165Z,20.27
2023-05-22T06:36:35.037Z,20.00
2023-05-22T06:39:03.269Z,19.45
2023-05-22T06:41:29.997Z,21.23
2023-05-22T06:43:57.159Z,18.50
2023-05-22T06:46:25.963Z,21.38
2023-05-22T06:48:54.706Z,18.88
2023-05-22T06:51:21.626Z,18.75
2023-05-22T06:53:48.447Z,21.77
2023-05-22T06:56:15.468Z,20.23
2023-05-22T06:58:42.258Z,19.88
2023-05-22T07:01:09.103Z,22.05
2023-05-22T07:03:36.023Z,20.30
2023-05-22T07:06:03.230Z,20.00
2023-05-22T07:08:31.476Z,21.13
2023-05-22T07:10:58.242Z,17.77
2023-05-22T07:13:25.004Z,19.60
2023-05-22T07:15:51.754Z,21.65
2023-05-22T07:18:19.138Z,20.92
2023-05-22T07:20:46.123Z,18.73
2023-05-22T07:23:13.003Z,18.02
2023-05-22T07:25:39.881Z,18.42
2023-05-22T07:28:08.947Z,18.00
2023-05-22T07:30:38.939Z,16.60
2023-05-22T07:33:06.300Z,17.63
2023-05-22T07:35:33.134Z,17.77
2023-05-22T07:37:59.936Z,18.77
2023-05-22T07:40:26.904Z,19.38
2023-05-22T07:42:53.919Z,18.30
2023-05-22T07:45:20.862Z,16.23
2023-05-22T07:47:47.626Z,20.77
2023-05-22T07:50:14.414Z,19.63
2023-05-22T07:52:41.280Z,15.80
2023-05-22T07:55:09.883Z,17.52
2023-05-22T07:57:36.772Z,16.67
2023-05-22T08:00:13.738Z,15.52
2023-05-22T08:02:41.733Z,16.95
2023-05-22T08:05:09.696Z,15.18
2023-05-22T08:07:37.126Z,17.70
2023-05-22T08:10:13.372Z,18.33
2023-05-22T08:12:40.184Z,20.08
2023-05-22T08:15:07.945Z,17.13
2023-05-22T08:17:35.469Z,14.05
2023-05-22T08:20:03.037Z,16.67
2023-05-22T08:22:31.140Z,14.85
2023-05-22T08:24:59.110Z,19.92
2023-05-22T08:27:25.902Z,12.95
2023-05-22T08:29:52.726Z,11.82
2023-05-22T08:32:19.552Z,11.80
2023-05-22T08:34:47.901Z,12.88
2023-05-22T08:37:15.063Z,14.93
2023-05-22T08:39:43.133Z,14.50
2023-05-22T08:42:10.014Z,14.90
2023-05-22T08:44:36.972Z,13.57
2023-05-22T08:47:11.222Z,13.25
2023-05-22T08:49:40.079Z,13.55
2023-05-22T08:52:18.813Z,14.85
2023-05-22T08:54:53.162Z,14.65
2023-05-22T08:57:21.373Z,14.02
2023-05-22T08:59:49.494Z,13.85
2023-05-22T09:02:17.417Z,17.30
2023-05-22T09:04:44.303Z,12.65
2023-05-22T09:07:11.224Z,12.57
2023-05-22T09:09:41.203Z,14.88
2023-05-22T09:12:11.400Z,12.88
2023-05-22T09:14:42.721Z,12.63
2023-05-22T09:17:15.006Z,12.30
2023-05-22T09:19:46.094Z,12.00
2023-05-22T09:22:15.165Z,11.82
2023-05-22T09:24:48.707Z,12.05
2023-05-22T09:27:16.691Z,11.80
2023-05-22T09:29:56.845Z,11.82
2023-05-22T09:32:24.095Z,13.15
2023-05-22T09:34:51.512Z,11.90
2023-05-22T09:37:18.964Z,13.50
2023-05-22T09:39:51.398Z,11.77
2023-05-22T09:42:18.336Z,15.70
2023-05-22T09:44:51.255Z,16.85
2023-05-22T09:47:19.810Z,18.38
2023-05-22T09:49:46.661Z,15.88
2023-05-22T09:52:13.496Z,11.40
2023-05-22T09:54:55.182Z,13.45
2023-05-22T09:57:24.910Z,14.18
2023-05-22T09:59:58.207Z,14.40
2023-05-22T10:02:28.033Z,14.00
2023-05-22T10:04:55.153Z,16.50
2023-05-22T10:07:30.958Z,15.85
2023-05-22T10:10:09.557Z,15.68
2023-05-22T10:13:06.700Z,13.68
2023-05-22T10:15:36.975Z,14.00
2023-05-22T10:18:05.258Z,15.60
2023-05-22T10:20:32.398Z,13.48
2023-05-22T10:23:03.316Z,12.98
2023-05-22T10:25:30.662Z,13.20
2023-05-22T10:27:59.441Z,13.82
2023-05-22T10:31:10.063Z,12.52
2023-05-22T10:33:47.797Z,12.63
2023-05-22T10:36:47.622Z,12.18
2023-05-22T10:39:45.959Z,12.57
2023-05-22T10:42:18.049Z,14.93
2023-05-22T10:44:48.497Z,14.85
2023-05-22T10:47:15.769Z,13.63
2023-05-22T10:49:46.825Z,12.75
2023-05-22T10:52:18.910Z,12.93
2023-05-22T10:54:49.045Z,12.43
2023-05-22T10:57:17.501Z,13.35
2023-05-22T10:59:47.906Z,11.80
2023-05-22T11:02:32.037Z,14.00
2023-05-22T11:05:31.305Z,17.80
2023-05-22T11:08:38.070Z,16.35
2023-05-22T11:11:13.085Z,13.80
2023-05-22T11:13:41.223Z,19.50
2023-05-22T11:16:10.395Z,15.00
2023-05-22T11:18:37.438Z,13.07
2023-05-22T11:21:06.022Z,11.25
2023-05-22T11:23:38.614Z,12.85
2023-05-22T11:26:22.475Z,11.20
2023-05-22T11:28:52.125Z,11.48
2023-05-22T11:31:20.434Z,10.90
2023-05-22T11:33:48.357Z,12.93
2023-05-22T11:36:17.355Z,13.23
2023-05-22T11:38:44.874Z,16.23
2023-05-22T11:41:12.131Z,16.63
2023-05-22T11:43:42.017Z,14.88
2023-05-22T11:46:14.150Z,13.40
2023-05-22T11:48:42.443Z,16.58
2023-05-22T11:51:10.559Z,15.13
2023-05-22T11:53:37.548Z,14.27
2023-05-22T11:56:06.874Z,16.17
2023-05-22T11:58:33.806Z,13.93
2023-05-22T12:01:04.828Z,15.05
2023-05-22T12:03:32.821Z,12.38
2023-05-22T12:06:01.769Z,12.32
2023-05-22T12:08:29.056Z,15.88
2023-05-22T12:10:55.927Z,16.60
2023-05-22T12:13:29.014Z,14.95
2023-05-22T12:16:02.556Z,15.77
2023-05-22T12:18:38.275Z,18.63
2023-05-22T12:21:08.710Z,18.80
2023-05-22T12:23:35.634Z,15.15
2023-05-22T12:26:09.028Z,15.13
2023-05-22T12:28:40.639Z,12.68
2023-05-22T12:31:07.465Z,14.35
2023-05-22T12:33:34.260Z,14.32
2023-05-22T12:36:07.555Z,13.45
2023-05-22T12:38:35.524Z,14.07
2023-05-22T12:41:02.544Z,14.18
2023-05-22T12:43:29.802Z,16.52
2023-05-22T12:45:56.633Z,10.30
2023-05-22T12:48:23.698Z,9.27
2023-05-22T12:50:50.632Z,11.80
2023-05-22T12:53:17.453Z,9.23
2023-05-22T12:55:44.211Z,6.70
2023-05-22T12:58:10.978Z,11.15
2023-05-22T13:00:38.196Z,10.07
2023-05-22T13:03:06.607Z,8.07
2023-05-22T13:05:33.506Z,10.60
2023-05-22T13:08:00.381Z,6.63
2023-05-22T13:10:27.222Z,8.88
2023-05-22T13:12:54.142Z,9.02
2023-05-22T13:15:20.950Z,16.92
2023-05-22T13:17:47.758Z,10.13
2023-05-22T13:20:14.765Z,8.18
2023-05-22T13:22:43.089Z,8.82
2023-05-22T13:25:10.255Z,7.75
2023-05-22T13:27:37.107Z,12.25
2023-05-22T13:30:04.580Z,16.17
2023-05-22T13:32:34.247Z,12.98
2023-05-22T13:35:01.254Z,9.90
2023-05-22T13:37:28.409Z,9.45
2023-05-22T13:39:55.409Z,6.90
2023-05-22T13:42:22.369Z,7.05
2023-05-22T13:44:49.714Z,7.07
2023-05-22T13:47:18.519Z,6.75
2023-05-22T13:49:49.122Z,6.30
2023-05-22T13:52:16.192Z,7.25
2023-05-22T13:54:43.323Z,8.63
2023-05-22T13:57:10.227Z,7.60
2023-05-22T13:59:37.061Z,7.43
2023-05-22T14:02:04.153Z,8.25
2023-05-22T14:04:31.312Z,10.60
2023-05-22T14:06:58.050Z,7.72
2023-05-22T14:09:24.824Z,7.15
2023-05-22T14:11:51.733Z,5.90
2023-05-22T14:14:23.821Z,9.18
2023-05-22T14:16:51.790Z,7.90
2023-05-22T14:19:20.348Z,5.80
2023-05-22T14:21:51.026Z,6.70
2023-05-22T14:24:18.557Z,5.95
2023-05-22T14:26:45.626Z,6.95
2023-05-22T14:29:12.786Z,7.65
2023-05-22T14:31:50.654Z,8.70
2023-05-22T14:34:18.581Z,5.78
2023-05-22T14:36:46.571Z,10.30
2023-05-22T14:39:13.407Z,9.38
2023-05-22T14:41:40.407Z,8.00
2023-05-22T14:44:07.219Z,8.02
2023-05-22T14:46:34.162Z,7.72
2023-05-22T14:49:03.508Z,6.78
2023-05-22T14:51:31.149Z,7.93
2023-05-22T14:53:58.210Z,8.63
2023-05-22T14:56:26.441Z,6.43
2023-05-22T14:58:53.301Z,7.85
2023-05-22T15:01:20.878Z,7.18
2023-05-22T15:03:47.719Z,8.07
2023-05-22T15:06:14.959Z,6.25
2023-05-22T15:08:41.821Z,5.97
2023-05-22T15:11:10.617Z,7.00
2023-05-22T15:13:37.420Z,10.15
2023-05-22T15:16:04.651Z,6.25
2023-05-22T15:18:31.953Z,5.75
2023-05-22T15:20:59.886Z,5.85
2023-05-22T15:23:26.901Z,6.35
2023-05-22T15:25:54.319Z,5.55
2023-05-22T15:28:22.016Z,6.85
2023-05-22T15:30:48.993Z,6.00
2023-05-22T15:33:16.683Z,5.32
2023-05-22T15:35:46.666Z,3.75
2023-05-22T15:38:15.517Z,4.78
2023-05-22T15:40:43.481Z,6.55
2023-05-22T15:43:10.699Z,5.05
2023-05-22T15:45:38.265Z,4.95
2023-05-22T15:48:07.459Z,5.13
2023-05-22T15:50:35.195Z,6.43
2023-05-22T15:53:02.095Z,5.15
2023-05-22T15:55:28.898Z,5.43
2023-05-22T15:57:55.738Z,5.57
2023-05-22T16:00:22.821Z,5.30
2023-05-22T16:02:49.759Z,4.55
2023-05-22T16:05:16.706Z,6.47
2023-05-22T16:07:44.001Z,5.32
2023-05-22T16:10:11.674Z,5.68
2023-05-22T16:12:41.030Z,3.92
2023-05-22T16:15:08.700Z,6.10
2023-05-22T16:17:35.539Z,4.13
2023-05-22T16:20:04.600Z,3.15
2023-05-22T16:22:44.027Z,3.65
2023-05-22T16:25:19.588Z,5.70
2023-05-22T16:27:46.420Z,5.00
2023-05-22T16:30:16.707Z,7.47
2023-05-22T16:32:46.499Z,3.53
2023-05-22T16:35:14.498Z,3.90
2023-05-22T16:37:41.402Z,2.35
2023-05-22T16:40:12.062Z,3.63
2023-05-22T16:42:38.951Z,3.28
2023-05-22T16:45:07.780Z,3.78
2023-05-22T16:47:34.673Z,8.85
2023-05-22T16:50:01.727Z,4.20
2023-05-22T16:52:28.532Z,7.38
2023-05-22T16:54:55.601Z,6.85
2023-05-22T16:57:22.424Z,7.30
2023-05-22T16:59:49.304Z,8.30
2023-05-22T17:02:17.232Z,5.85
2023-05-22T17:04:44.170Z,4.38
2023-05-22T17:07:10.925Z,4.22
2023-05-22T17:09:37.727Z,7.97
2023-05-22T17:12:04.937Z,5.43
2023-05-22T17:14:33.433Z,8.30
2023-05-22T17:17:00.304Z,6.40
2023-05-22T17:19:27.082Z,6.53
2023-05-22T17:21:53.985Z,5.30
2023-05-22T17:24:20.727Z,4.82
2023-05-22T17:26:48.962Z,6.68
2023-05-22T17:29:15.902Z,10.00
2023-05-22T17:31:42.696Z,5.38
2023-05-22T17:34:09.474Z,5.63
2023-05-22T17:36:36.656Z,8.02
2023-05-22T17:39:03.635Z,4.40
2023-05-22T17:41:30.980Z,4.22
2023-05-22T17:44:00.761Z,5.22
2023-05-22T17:46:28.019Z,4.50
2023-05-22T17:48:55.734Z,4.32
2023-05-22T17:51:22.946Z,3.88
2023-05-22T17:53:50.093Z,5.50
2023-05-22T17:56:17.312Z,6.82
2023-05-22T17:58:45.144Z,5.30
2023-05-22T18:01:12.034Z,4.43
2023-05-22T18:03:39.182Z,6.30
2023-05-22T18:06:06.533Z,6.25
2023-05-22T18:08:33.370Z,4.82
2023-05-22T18:11:00.282Z,4.75
2023-05-22T18:13:27.112Z,5.25
2023-05-22T18:15:54.349Z,5.13
2023-05-22T18:18:22.468Z,6.50
2023-05-22T18:20:49.600Z,5.35
2023-05-22T18:23:16.514Z,4.15
2023-05-22T18:25:43.364Z,6.63
2023-05-22T18:28:10.234Z,5.53
2023-05-22T18:30:40.325Z,5.70
2023-05-22T18:33:07.937Z,4.82
2023-05-22T18:35:34.756Z,5.05
2023-05-22T18:38:03.869Z,5.82
2023-05-22T18:40:30.913Z,4.20
2023-05-22T18:42:57.719Z,4.80
2023-05-22T18:45:24.462Z,5.32
2023-05-22T18:47:51.396Z,5.63
2023-05-22T18:50:18.415Z,5.88
2023-05-22T18:52:45.495Z,7.72
2023-05-22T18:55:12.425Z,6.53
2023-05-22T18:57:39.391Z,8.10
2023-05-22T19:00:07.976Z,6.72
2023-05-22T19:02:34.953Z,6.15
2023-05-22T19:05:02.897Z,8.90
2023-05-22T19:07:30.338Z,5.30
2023-05-22T19:09:57.196Z,6.55
2023-05-22T19:12:25.444Z,5.95
2023-05-22T19:14:52.507Z,6.80
2023-05-22T19:17:19.323Z,7.10
2023-05-22T19:19:46.820Z,6.15
2023-05-22T19:22:14.558Z,8.57
2023-05-22T19:24:42.680Z,8.05
2023-05-22T19:27:09.496Z,7.07
2023-05-22T19:29:36.519Z,9.80
2023-05-22T19:32:05.722Z,9.57
2023-05-22T19:34:32.808Z,9.13
2023-05-22T19:37:04.782Z,8.00
2023-05-22T19:39:31.746Z,8.13
2023-05-22T19:41:58.518Z,7.80
2023-05-22T19:44:25.610Z,8.25
2023-05-22T19:46:52.555Z,8.43
2023-05-22T19:49:19.505Z,10.23
2023-05-22T19:51:46.438Z,8.45
2023-05-22T19:54:13.328Z,12.18
2023-05-22T19:56:40.172Z,9.52
2023-05-22T19:59:08.103Z,8.88
2023-05-22T20:01:34.958Z,11.20
2023-05-22T20:04:01.793Z,11.43
2023-05-22T20:06:31.540Z,10.88
2023-05-22T20:08:58.451Z,9.48
2023-05-22T20:11:26.129Z,9.10
2023-05-22T20:13:54.495Z,10.00
2023-05-22T20:16:21.443Z,8.05
2023-05-22T20:18:48.812Z,10.82
2023-05-22T20:21:15.692Z,9.18
2023-05-22T20:23:42.497Z,11.35
2023-05-22T20:26:09.422Z,12.95
2023-05-22T20:28:36.218Z,10.00
2023-05-22T20:31:03.094Z,11.55
2023-05-22T20:33:29.869Z,12.50
2023-05-22T20:35:56.930Z,10.38
2023-05-22T20:38:23.883Z,10.73
2023-05-22T20:40:51.794Z,10.50
2023-05-22T20:43:18.944Z,7.80
2023-05-22T20:45:46.510Z,10.70
2023-05-22T20:48:14.723Z,11.93
2023-05-22T20:50:42.287Z,9.65
2023-05-22T20:53:09.291Z,9.65
2023-05-22T20:55:36.139Z,11.93
2023-05-22T20:58:02.984Z,11.85
2023-05-22T21:00:30.391Z,11.52
2023-05-22T21:02:58.613Z,10.85
2023-05-22T21:05:26.247Z,11.00
2023-05-22T21:07:53.090Z,11.48
2023-05-22T21:10:19.961Z,10.75
2023-05-22T21:12:46.784Z,9.35
2023-05-22T21:15:13.676Z,9.00
2023-05-22T21:17:40.536Z,11.73
2023-05-22T21:20:08.124Z,9.38
2023-05-22T21:22:36.233Z,8.48
2023-05-22T21:25:03.673Z,9.45
2023-05-22T21:27:30.524Z,9.35
2023-05-22T21:29:57.326Z,9.07
2023-05-22T21:32:24.122Z,9.43
2023-05-22T21:34:50.962Z,6.40
2023-05-22T21:37:17.731Z,7.97
2023-05-22T21:39:44.529Z,6.50
2023-05-22T21:42:11.330Z,7.57
2023-05-22T21:44:38.824Z,9.88
2023-05-22T21:47:05.888Z,7.05
2023-05-22T21:49:33.234Z,8.82
2023-05-22T21:52:00.072Z,5.93
2023-05-22T21:54:26.900Z,6.53
2023-05-22T21:56:54.219Z,7.25
2023-05-22T21:59:21.022Z,8.68
2023-05-22T22:01:47.849Z,6.60
2023-05-22T22:04:14.645Z,8.90
2023-05-22T22:06:41.445Z,7.90
2023-05-22T22:09:11.334Z,7.68
2023-05-22T22:11:38.067Z,6.55
2023-05-22T22:14:04.976Z,6.50
2023-05-22T22:16:35.806Z,6.45
2023-05-22T22:19:03.588Z,7.90
2023-05-22T22:21:31.539Z,7.70
2023-05-22T22:23:58.372Z,6.82
2023-05-22T22:26:25.314Z,7.78
2023-05-22T22:28:52.900Z,6.57
2023-05-22T22:31:19.786Z,8.05
2023-05-22T22:33:46.568Z,7.13
2023-05-22T22:36:13.423Z,6.90
2023-05-22T22:38:40.324Z,6.78
2023-05-22T22:41:09.584Z,10.25
2023-05-22T22:43:36.668Z,8.35
2023-05-22T22:46:03.534Z,8.57
2023-05-22T22:48:32.935Z,6.47
2023-05-22T22:50:59.745Z,7.72
2023-05-22T22:53:26.585Z,7.30
2023-05-22T22:55:56.946Z,8.55
2023-05-22T22:58:23.826Z,6.85
2023-05-22T23:00:50.638Z,9.60
2023-05-22T23:03:17.491Z,8.88
2023-05-22T23:05:44.687Z,8.98
2023-05-22T23:08:11.915Z,7.97
2023-05-22T23:10:38.907Z,8.93
2023-05-22T23:13:05.710Z,10.25
2023-05-22T23:15:33.633Z,8.40
2023-05-22T23:18:00.624Z,12.20
2023-05-22T23:20:27.409Z,11.10
2023-05-22T23:22:54.180Z,10.02
2023-05-22T23:25:21.027Z,13.57
2023-05-22T23:27:47.983Z,14.15
2023-05-22T23:30:15.007Z,10.98
2023-05-22T23:32:41.844Z,13.07
2023-05-22T23:35:10.804Z,12.43
2023-05-22T23:37:37.944Z,13.52
2023-05-22T23:40:06.704Z,16.35
2023-05-22T23:42:35.199Z,10.40
2023-05-22T23:45:04.177Z,11.05
2023-05-22T23:47:31.552Z,9.88
2023-05-22T23:49:59.545Z,13.88
2023-05-22T23:52:27.013Z,16.08
2023-05-22T23:54:53.855Z,18.70
2023-05-22T23:57:20.775Z,16.38
2023-05-22T23:59:47.601Z,12.30
